Time;durP1;ratioP1;P1;durP2;ratioP2;P2;SDS_P1;SDS_P2;PMS_P1;PMS_P2;Temp;Humidity;BMP_temperature;BMP_pressure;BME280_temperature;BME280_humidity;BME280_pressure;Samples;Min_cycle;Max_cycle;Signal;HPM_P1;HPM_P2
2022/04/05 00:01:33;;;;;;;17.65;9.38;;;;;;;5.25;58.57;95237.94;5108907;28;20455;-69
2022/04/05 00:03:59;;;;;;;12.98;8.68;;;;;;;5.22;57.85;95235.56;5108254;28;20099;-67
2022/04/05 00:06:24;;;;;;;17.05;9.77;;;;;;;5.25;58.62;95232.59;5108599;28;20031;-69
2022/04/05 00:08:50;;;;;;;15.88;9.68;;;;;;;5.22;58.32;95235.56;5108194;28;20047;-67
2022/04/05 00:11:15;;;;;;;16.25;10.18;;;;;;;5.15;57.64;95231.81;5108386;28;20019;-69
2022/04/05 00:13:41;;;;;;;16.80;10.75;;;;;;;5.07;56.93;95236.06;5107383;28;20513;-68
2022/04/05 00:16:06;;;;;;;17.73;11.02;;;;;;;5.00;56.81;95234.16;5107722;28;20057;-69
2022/04/05 00:18:32;;;;;;;17.52;11.07;;;;;;;4.96;56.51;95233.59;5107462;28;20383;-69
2022/04/05 00:20:57;;;;;;;16.95;10.88;;;;;;;4.91;56.70;95225.22;5105892;28;20430;-69
2022/04/05 00:23:22;;;;;;;16.95;10.95;;;;;;;4.93;56.91;95228.56;5108206;28;20035;-67
2022/04/05 00:25:48;;;;;;;15.18;9.50;;;;;;;4.85;57.60;95236.44;5107235;28;20044;-69
2022/04/05 00:28:13;;;;;;;16.05;9.82;;;;;;;4.84;57.39;95234.78;5107826;28;20051;-68
2022/04/05 00:30:39;;;;;;;17.20;9.65;;;;;;;4.80;56.96;95229.72;5108415;28;20031;-68
2022/04/05 00:33:04;;;;;;;14.35;9.82;;;;;;;4.68;57.67;95230.91;5107377;28;20478;-69
2022/04/05 00:35:30;;;;;;;13.27;8.95;;;;;;;4.61;57.52;95229.81;5107219;28;20020;-69
2022/04/05 00:37:55;;;;;;;16.45;8.52;;;;;;;4.59;57.34;95237.94;5105799;28;20028;-67
2022/04/05 00:40:20;;;;;;;13.57;9.10;;;;;;;4.50;57.88;95222.88;5107920;28;20544;-68
2022/04/05 00:42:46;;;;;;;14.25;8.27;;;;;;;4.56;57.72;95220.44;5107137;28;20023;-68
2022/04/05 00:45:11;;;;;;;12.10;8.02;;;;;;;4.58;58.65;95215.00;5107627;28;20031;-68
2022/04/05 00:47:37;;;;;;;12.90;8.82;;;;;;;4.49;58.34;95213.22;5107630;28;20019;-67
2022/04/05 00:50:03;;;;;;;12.50;8.50;;;;;;;4.54;58.69;95208.31;5106988;27;20031;-68
2022/04/05 00:52:28;;;;;;;13.75;8.10;;;;;;;4.49;58.68;95213.22;5107477;28;20620;-69
2022/04/05 00:54:54;;;;;;;14.57;8.55;;;;;;;4.46;58.39;95211.69;5106343;28;20031;-67
2022/04/05 00:57:21;;;;;;;12.98;8.05;;;;;;;4.40;58.85;95206.97;5108042;28;20133;-68
2022/04/05 00:59:48;;;;;;;14.90;8.20;;;;;;;4.35;59.14;95206.53;5107040;28;20057;-70
2022/04/05 01:02:17;;;;;;;16.58;9.10;;;;;;;4.32;58.74;95205.84;5089080;28;20461;-68
2022/04/05 01:04:43;;;;;;;15.68;8.52;;;;;;;4.21;58.84;95195.38;5105765;28;20030;-66
2022/04/05 01:07:19;;;;;;;16.10;8.77;;;;;;;4.15;59.35;95196.81;5106949;28;20031;-67
2022/04/05 01:09:45;;;;;;;14.30;9.48;;;;;;;4.05;60.11;95195.97;5108290;28;20389;-69
2022/04/05 01:12:11;;;;;;;14.95;8.95;;;;;;;4.01;60.46;95192.78;5106724;28;20027;-68
2022/04/05 01:14:37;;;;;;;15.88;8.88;;;;;;;3.97;60.80;95196.69;5107629;28;20501;-71
2022/04/05 01:17:03;;;;;;;10.18;7.80;;;;;;;3.77;62.00;95190.56;5106503;28;20088;-66
2022/04/05 01:19:29;;;;;;;10.50;7.53;;;;;;;3.78;61.72;95193.09;5107309;28;20498;-66
2022/04/05 01:21:55;;;;;;;10.10;6.47;;;;;;;3.90;61.43;95191.09;5105287;28;20546;-67
2022/04/05 01:24:20;;;;;;;9.27;6.22;;;;;;;4.01;61.36;95187.47;5106559;28;20544;-69
2022/04/05 01:26:50;;;;;;;9.90;6.50;;;;;;;3.92;62.45;95183.00;5107354;28;20036;-67
2022/04/05 01:29:16;;;;;;;9.00;6.60;;;;;;;3.88;62.77;95195.72;5106561;28;20024;-68
2022/04/05 01:31:46;;;;;;;16.60;7.25;;;;;;;3.89;63.21;95189.44;5106155;28;20031;-68
2022/04/05 01:34:16;;;;;;;12.07;6.82;;;;;;;3.91;62.71;95192.81;5105948;28;20024;-69
2022/04/05 01:36:43;;;;;;;11.30;6.88;;;;;;;3.97;62.63;95196.69;5105686;28;20035;-72
2022/04/05 01:39:12;;;;;;;11.32;7.30;;;;;;;3.90;63.26;95195.59;5106085;28;20476;-66
2022/04/05 01:41:38;;;;;;;13.15;7.78;;;;;;;3.89;63.95;95196.56;5106400;28;20451;-68
2022/04/05 01:44:05;;;;;;;18.38;8.50;;;;;;;3.96;63.72;95189.72;5106550;28;20477;-67
2022/04/05 01:46:31;;;;;;;20.38;9.00;;;;;;;4.01;64.05;95192.78;5106371;28;20020;-69
2022/04/05 01:48:57;;;;;;;12.90;7.85;;;;;;;4.02;64.17;95186.50;5107133;28;20032;-69
2022/04/05 01:51:22;;;;;;;14.57;7.90;;;;;;;3.99;64.98;95189.44;5087166;28;20015;-69
2022/04/05 01:53:48;;;;;;;12.07;6.85;;;;;;;4.06;64.35;95193.19;5106819;28;20096;-69
2022/04/05 01:56:13;;;;;;;14.75;7.63;;;;;;;4.10;64.82;95191.09;5105918;28;20478;-69
2022/04/05 01:58:38;;;;;;;12.60;6.82;;;;;;;4.17;64.24;95186.91;5104912;28;20028;-68
2022/04/05 02:01:04;;;;;;;11.25;7.55;;;;;;;4.24;64.57;95186.31;5106206;28;20020;-68
2022/04/05 02:03:30;;;;;;;10.57;6.68;;;;;;;4.28;64.61;95182.38;5105791;28;20023;-68
2022/04/05 02:05:55;;;;;;;10.77;6.95;;;;;;;4.33;64.44;95183.63;5106384;28;20016;-68
2022/04/05 02:08:21;;;;;;;14.63;7.75;;;;;;;4.38;64.11;95177.03;5087017;28;20028;-69
2022/04/05 02:10:46;;;;;;;13.70;7.60;;;;;;;4.45;63.94;95184.28;5106668;28;20027;-68
2022/04/05 02:13:11;;;;;;;13.70;8.60;;;;;;;4.47;63.70;95175.31;5104153;28;20054;-68
2022/04/05 02:15:37;;;;;;;13.70;7.97;;;;;;;4.42;63.98;95173.94;5106243;28;20493;-68
2022/04/05 02:18:02;;;;;;;15.00;8.38;;;;;;;4.32;64.70;95173.16;5104421;28;20047;-68
2022/04/05 02:20:28;;;;;;;14.80;9.15;;;;;;;4.19;64.87;95165.50;5105594;28;20501;-67
2022/04/05 02:22:53;;;;;;;18.75;8.73;;;;;;;4.13;65.29;95174.03;5106092;28;20027;-68
2022/04/05 02:25:18;;;;;;;16.08;8.85;;;;;;;3.84;66.43;95165.13;5105108;28;20108;-68
2022/04/05 02:27:45;;;;;;;14.35;8.40;;;;;;;3.83;66.10;95161.66;5106600;28;20027;-69
2022/04/05 02:30:11;;;;;;;13.50;8.30;;;;;;;3.82;66.07;95157.31;5104077;28;20023;-68
2022/04/05 02:32:36;;;;;;;14.27;8.13;;;;;;;3.79;64.90;95162.09;5106070;28;20532;-67
2022/04/05 02:35:02;;;;;;;17.20;8.48;;;;;;;3.71;64.83;95152.16;5105222;28;20077;-69
2022/04/05 02:37:28;;;;;;;13.38;8.05;;;;;;;3.74;65.25;95151.88;5104296;28;20076;-68
2022/04/05 02:39:53;;;;;;;15.30;7.82;;;;;;;3.74;65.49;95153.72;5103977;28;20027;-69
2022/04/05 02:42:19;;;;;;;13.32;7.85;;;;;;;3.68;64.99;95163.06;5105456;28;20031;-70
2022/04/05 02:44:44;;;;;;;12.40;7.22;;;;;;;3.65;63.97;95163.34;5105808;28;20027;-69
2022/04/05 02:47:10;;;;;;;19.73;8.07;;;;;;;3.63;63.45;95160.03;5105052;28;20024;-67
2022/04/05 02:49:36;;;;;;;13.50;7.60;;;;;;;3.58;63.44;95160.41;5106181;28;20062;-69
2022/04/05 02:52:03;;;;;;;10.90;6.88;;;;;;;3.56;63.26;95171.16;5103674;28;20028;-68
2022/04/05 02:54:28;;;;;;;13.15;7.20;;;;;;;3.52;62.21;95161.81;5105333;28;20340;-68
2022/04/05 02:56:54;;;;;;;11.27;7.25;;;;;;;3.42;62.79;95160.97;5105159;28;20019;-68
2022/04/05 02:59:19;;;;;;;9.23;6.90;;;;;;;3.40;62.94;95155.00;5105499;28;20016;-68
2022/04/05 03:01:45;;;;;;;10.82;7.55;;;;;;;3.38;62.76;95152.47;5105316;28;20038;-68
2022/04/05 03:04:10;;;;;;;12.18;7.35;;;;;;;3.35;63.68;95152.75;5104986;28;20028;-68
2022/04/05 03:06:35;;;;;;;17.17;7.65;;;;;;;3.34;63.25;95154.56;5105569;28;20027;-67
2022/04/05 03:09:01;;;;;;;13.80;8.40;;;;;;;3.31;63.13;95160.16;5104435;28;20032;-68
2022/04/05 03:11:26;;;;;;;14.88;8.20;;;;;;;3.31;63.19;95154.84;5105359;28;20035;-69
2022/04/05 03:13:52;;;;;;;14.15;8.23;;;;;;;3.28;63.13;95148.97;5104774;28;20023;-70
2022/04/05 03:16:17;;;;;;;13.50;8.35;;;;;;;3.28;63.13;95149.81;5106004;28;20031;-68
2022/04/05 03:18:45;;;;;;;12.48;6.80;;;;;;;3.25;63.04;95144.81;5109000;27;20032;-67
2022/04/05 03:21:12;;;;;;;11.07;7.07;;;;;;;3.28;63.23;95141.88;5109171;28;20035;-67
2022/04/05 03:23:38;;;;;;;12.27;7.13;;;;;;;3.27;62.80;95142.00;5109412;28;20172;-68
2022/04/05 03:26:04;;;;;;;12.40;6.80;;;;;;;3.24;62.34;95148.41;5108484;28;20561;-68
2022/04/05 03:28:29;;;;;;;13.48;7.72;;;;;;;3.22;61.48;95139.78;5109392;28;20434;-69
2022/04/05 03:30:54;;;;;;;14.88;6.82;;;;;;;3.16;61.26;95146.44;5108452;28;20020;-69
2022/04/05 03:33:20;;;;;;;13.15;7.60;;;;;;;3.14;61.24;95142.28;5109668;28;20143;-68
2022/04/05 03:35:46;;;;;;;12.93;7.38;;;;;;;3.02;61.00;95137.09;5108410;28;20433;-68
2022/04/05 03:38:11;;;;;;;10.57;7.70;;;;;;;2.76;62.44;95145.56;5109002;28;20075;-66
2022/04/05 03:40:37;;;;;;;11.60;8.20;;;;;;;2.65;62.65;95145.66;5107430;28;20023;-69
2022/04/05 03:43:02;;;;;;;13.43;8.98;;;;;;;2.64;63.40;95149.28;5090640;28;20027;-68
2022/04/05 03:45:28;;;;;;;11.15;7.97;;;;;;;2.64;63.25;95149.28;5107920;28;20023;-70
2022/04/05 03:47:53;;;;;;;12.70;7.45;;;;;;;2.69;63.32;95144.44;5108180;28;20047;-68
2022/04/05 03:50:19;;;;;;;14.02;8.68;;;;;;;2.51;64.38;95138.94;5109127;28;20472;-68
2022/04/05 03:52:44;;;;;;;12.40;8.05;;;;;;;2.51;63.59;95134.50;5107862;28;20031;-67
2022/04/05 03:55:11;;;;;;;20.55;8.23;;;;;;;2.54;63.90;95136.00;5108947;28;20097;-70
2022/04/05 03:57:37;;;;;;;13.50;8.48;;;;;;;2.60;64.40;95135.47;5108154;27;20559;-67
2022/04/05 04:00:03;;;;;;;14.25;8.32;;;;;;;2.62;64.27;95132.69;5108518;28;20019;-67
2022/04/05 04:02:34;;;;;;;16.83;8.75;;;;;;;2.65;64.34;95143.00;5107661;28;20472;-69
2022/04/05 04:04:59;;;;;;;14.90;8.73;;;;;;;2.54;64.45;95138.66;5107992;28;20024;-69
2022/04/05 04:07:25;;;;;;;14.50;8.93;;;;;;;2.55;64.56;95148.28;5107826;28;20089;-69
2022/04/05 04:09:51;;;;;;;14.85;9.98;;;;;;;2.53;64.99;95151.06;5107652;28;20441;-69
2022/04/05 04:12:16;;;;;;;16.38;10.00;;;;;;;2.55;64.72;95149.13;5108971;28;20067;-69
2022/04/05 04:14:42;;;;;;;18.58;9.88;;;;;;;2.55;64.65;95156.22;5106543;28;20024;-70
2022/04/05 04:17:07;;;;;;;18.58;10.63;;;;;;;2.47;64.81;95156.88;5107252;28;20020;-70
2022/04/05 04:19:34;;;;;;;16.30;10.07;;;;;;;2.46;65.39;95164.00;5107081;28;20028;-69
2022/04/05 04:21:59;;;;;;;17.08;9.30;;;;;;;2.51;65.12;95163.59;5106511;28;20023;-69
2022/04/05 04:24:25;;;;;;;13.05;8.50;;;;;;;2.56;64.92;95160.56;5108446;28;20402;-71
2022/04/05 04:26:50;;;;;;;15.95;9.20;;;;;;;2.52;64.50;95165.28;5105942;28;20016;-69
2022/04/05 04:29:16;;;;;;;14.35;8.98;;;;;;;2.52;64.32;95159.97;5108103;28;20398;-70
2022/04/05 04:31:41;;;;;;;12.82;8.02;;;;;;;2.49;64.26;95154.94;5107582;28;20027;-70
2022/04/05 04:34:07;;;;;;;17.30;8.77;;;;;;;2.48;64.55;95163.88;5108220;28;20047;-67
2022/04/05 04:36:32;;;;;;;16.77;9.85;;;;;;;2.45;64.25;95162.31;5107644;28;20034;-68
2022/04/05 04:38:57;;;;;;;14.65;8.82;;;;;;;2.42;64.49;95161.78;5107375;28;20493;-67
2022/04/05 04:41:23;;;;;;;12.85;7.72;;;;;;;2.45;64.60;95164.16;5089650;28;20034;-68
2022/04/05 04:43:49;;;;;;;10.68;7.32;;;;;;;2.55;64.48;95162.34;5105984;28;20492;-68
2022/04/05 04:46:15;;;;;;;11.43;7.68;;;;;;;2.59;64.26;95158.50;5108640;28;20183;-68
2022/04/05 04:48:40;;;;;;;14.13;7.25;;;;;;;2.63;64.73;95155.56;5107240;28;20459;-67
2022/04/05 04:51:05;;;;;;;12.27;7.35;;;;;;;2.64;64.38;95159.88;5107775;28;20031;-71
2022/04/05 04:53:31;;;;;;;14.93;8.77;;;;;;;2.58;64.70;95158.59;5107320;28;20230;-67
2022/04/05 04:55:56;;;;;;;16.63;11.93;;;;;;;2.60;65.40;95161.94;5105866;28;20023;-67
2022/04/05 04:58:22;;;;;;;15.60;10.07;;;;;;;2.77;64.39;95165.78;5106092;28;20039;-68
2022/04/05 05:00:48;;;;;;;19.75;10.93;;;;;;;2.84;64.59;95163.41;5105894;28;20040;-70
2022/04/05 05:03:18;;;;;;;17.85;11.15;;;;;;;2.84;64.19;95166.06;5107844;28;20449;-69
2022/04/05 05:05:43;;;;;;;15.15;10.18;;;;;;;2.73;65.11;95172.31;5107074;28;20035;-69
2022/04/05 05:08:09;;;;;;;13.90;10.30;;;;;;;2.87;64.64;95175.56;5106290;28;20027;-69
2022/04/05 05:10:34;;;;;;;18.25;10.48;;;;;;;2.88;64.37;95167.47;5106690;28;20020;-69
2022/04/05 05:13:00;;;;;;;19.15;10.05;;;;;;;3.00;63.63;95177.97;5107534;28;20418;-69
2022/04/05 05:15:25;;;;;;;19.38;11.05;;;;;;;3.03;63.41;95178.50;5106787;28;20038;-66
2022/04/05 05:17:51;;;;;;;23.17;11.48;;;;;;;3.18;63.07;95171.00;5107211;28;20529;-69
2022/04/05 05:20:16;;;;;;;18.48;10.95;;;;;;;3.37;62.53;95179.13;5107151;28;20028;-68
2022/04/05 05:22:42;;;;;;;14.38;9.80;;;;;;;3.62;61.55;95180.38;5106742;28;20410;-68
2022/04/05 05:25:09;;;;;;;18.63;10.85;;;;;;;3.95;61.04;95172.09;5105763;28;20039;-69
2022/04/05 05:27:34;;;;;;;23.75;11.60;;;;;;;4.14;59.60;95181.88;5106042;28;20040;-68
2022/04/05 05:30:00;;;;;;;18.48;9.15;;;;;;;4.32;58.47;95179.28;5107492;28;20016;-67
2022/04/05 05:32:25;;;;;;;16.50;9.98;;;;;;;4.61;57.86;95176.69;5106442;28;20493;-68
2022/04/05 05:34:51;;;;;;;22.58;10.30;;;;;;;4.75;57.21;95178.88;5088423;28;20028;-68
2022/04/05 05:37:16;;;;;;;21.55;11.15;;;;;;;4.93;57.34;95186.06;5106536;28;20027;-68
2022/04/05 05:39:42;;;;;;;17.35;9.05;;;;;;;5.14;57.17;95183.09;5105357;28;20073;-69
2022/04/05 05:42:08;;;;;;;15.77;9.45;;;;;;;5.19;56.78;95177.38;5106823;28;20020;-69
2022/04/05 05:44:33;;;;;;;16.58;8.30;;;;;;;5.36;56.63;95180.19;5104597;28;20072;-68
2022/04/05 05:46:59;;;;;;;13.93;8.55;;;;;;;5.53;55.97;95182.00;5107181;28;20019;-69
2022/04/05 05:49:24;;;;;;;19.67;8.82;;;;;;;5.85;55.25;95170.97;5105638;28;20027;-68
2022/04/05 05:51:50;;;;;;;13.57;8.40;;;;;;;6.12;55.03;95178.06;5107097;28;20026;-68
2022/04/05 05:54:16;;;;;;;15.85;8.43;;;;;;;6.24;54.10;95181.28;5087506;28;20490;-68
2022/04/05 05:56:42;;;;;;;14.77;8.48;;;;;;;6.49;53.72;95178.78;5106342;27;20055;-67
2022/04/05 05:59:07;;;;;;;16.45;9.32;;;;;;;6.74;53.36;95180.75;5106505;28;20023;-70
2022/04/05 06:01:33;;;;;;;13.40;8.00;;;;;;;6.98;53.05;95180.00;5106050;28;20031;-69
2022/04/05 06:03:58;;;;;;;12.55;8.90;;;;;;;7.22;52.80;95175.72;5106997;28;20035;-69
2022/04/05 06:06:24;;;;;;;14.55;8.60;;;;;;;7.48;51.90;95173.97;5105484;28;20058;-68
2022/04/05 06:08:49;;;;;;;15.30;8.85;;;;;;;7.58;51.45;95171.16;5106536;28;20027;-67
2022/04/05 06:11:14;;;;;;;12.45;8.13;;;;;;;7.71;50.94;95170.66;5105759;28;20027;-70
2022/04/05 06:13:40;;;;;;;13.70;8.30;;;;;;;7.97;50.62;95170.50;5104840;28;20024;-70
2022/04/05 06:16:08;;;;;;;16.02;8.98;;;;;;;8.07;50.23;95161.50;5104860;28;20032;-71
2022/04/05 06:18:34;;;;;;;17.73;8.02;;;;;;;8.10;50.23;95163.81;5105672;28;20031;-68
2022/04/05 06:20:59;;;;;;;14.30;8.38;;;;;;;8.09;50.31;95164.84;5106269;28;20455;-68
2022/04/05 06:23:25;;;;;;;20.90;8.43;;;;;;;8.02;50.44;95156.66;5105325;28;20077;-69
2022/04/05 06:25:50;;;;;;;20.95;8.10;;;;;;;8.07;50.63;95161.50;5106224;28;20097;-68
2022/04/05 06:28:18;;;;;;;15.52;7.88;;;;;;;8.00;50.68;95153.31;5104993;27;20027;-68
2022/04/05 06:30:43;;;;;;;23.27;9.10;;;;;;;8.12;50.41;95160.00;5104556;28;20054;-69
2022/04/05 06:33:17;;;;;;;14.68;7.43;;;;;;;8.18;50.47;95153.13;5105354;28;20031;-69
2022/04/05 06:35:47;;;;;;;16.20;8.00;;;;;;;8.15;50.42;95156.13;5104135;28;20615;-67
2022/04/05 06:38:12;;;;;;;13.30;7.65;;;;;;;8.16;50.40;95157.81;5106162;28;20112;-67
2022/04/05 06:40:38;;;;;;;13.10;8.38;;;;;;;8.26;50.42;95153.13;5104949;28;20328;-68
2022/04/05 06:43:03;;;;;;;12.90;8.65;;;;;;;8.28;50.65;95159.16;5106160;28;20030;-68
2022/04/05 06:45:29;;;;;;;16.20;10.00;;;;;;;8.47;49.90;95156.25;5105170;28;20078;-67
2022/04/05 06:47:55;;;;;;;15.75;9.70;;;;;;;8.72;49.23;95149.00;5105470;28;20582;-70
2022/04/05 06:50:24;;;;;;;14.93;9.90;;;;;;;9.08;49.24;95152.22;5104721;28;20028;-69
2022/04/05 06:52:50;;;;;;;17.75;11.55;;;;;;;9.25;48.18;95151.13;5105356;28;20106;-69
2022/04/05 06:55:15;;;;;;;16.75;10.02;;;;;;;9.46;47.99;95147.00;5104441;28;20126;-68
2022/04/05 06:57:40;;;;;;;16.25;9.50;;;;;;;9.58;48.18;95143.91;5104976;28;20024;-67
2022/04/05 07:00:07;;;;;;;15.05;10.20;;;;;;;9.73;47.79;95144.81;5106249;28;20024;-72
2022/04/05 07:02:33;;;;;;;15.98;9.38;;;;;;;9.83;47.14;95144.59;5103888;28;20081;-69
2022/04/05 07:04:59;;;;;;;14.52;9.02;;;;;;;9.97;46.95;95148.31;5104219;28;20024;-69
2022/04/05 07:07:24;;;;;;;16.40;9.02;;;;;;;10.20;45.83;95141.25;5104755;28;20031;-69
2022/04/05 07:09:49;;;;;;;11.45;8.20;;;;;;;10.36;46.09;95148.31;5103857;28;20036;-68
2022/04/05 07:12:15;;;;;;;12.05;8.43;;;;;;;10.46;45.69;95145.38;5105187;28;20026;-70
2022/04/05 07:14:40;;;;;;;14.13;8.73;;;;;;;10.45;45.64;95146.34;5105205;28;20031;-67
2022/04/05 07:17:06;;;;;;;12.10;8.57;;;;;;;10.61;45.62;95145.38;5105299;28;20023;-68
2022/04/05 07:19:33;;;;;;;12.50;7.82;;;;;;;10.72;45.36;95138.75;5104686;28;20024;-70
2022/04/05 07:21:58;;;;;;;11.63;6.78;;;;;;;10.81;45.09;95145.69;5105424;28;20088;-68
2022/04/05 07:24:24;;;;;;;10.50;7.30;;;;;;;10.92;44.70;95143.53;5104329;28;20040;-68
2022/04/05 07:26:49;;;;;;;11.52;6.93;;;;;;;11.00;44.59;95141.59;5105078;28;20058;-68
2022/04/05 07:29:14;;;;;;;11.07;7.20;;;;;;;11.02;44.56;95145.94;5104511;28;20043;-67
2022/04/05 07:31:40;;;;;;;11.25;6.85;;;;;;;11.10;44.54;95143.16;5105246;28;20027;-68
2022/04/05 07:34:06;;;;;;;11.18;7.07;;;;;;;11.21;44.30;95145.34;5104710;28;20028;-67
2022/04/05 07:36:31;;;;;;;11.88;6.30;;;;;;;11.33;44.36;95144.88;5104995;28;20061;-68
2022/04/05 07:38:57;;;;;;;9.95;6.65;;;;;;;11.16;44.37;95141.56;5105265;28;20390;-68
2022/04/05 07:41:22;;;;;;;10.65;6.20;;;;;;;11.25;44.22;95137.78;5104129;28;20028;-67
2022/04/05 07:43:48;;;;;;;9.77;5.43;;;;;;;11.32;44.54;95137.81;5105135;28;20020;-67
2022/04/05 07:46:13;;;;;;;9.70;5.53;;;;;;;11.45;45.06;95132.63;5103925;28;20024;-68
2022/04/05 07:48:39;;;;;;;7.30;5.13;;;;;;;11.46;44.59;95133.44;5105056;28;20036;-69
2022/04/05 07:51:05;;;;;;;12.70;6.03;;;;;;;11.44;44.32;95128.28;5104379;28;20069;-68
2022/04/05 07:53:30;;;;;;;8.95;5.65;;;;;;;11.69;44.43;95132.44;5104779;28;20084;-71
2022/04/05 07:55:56;;;;;;;10.55;5.50;;;;;;;11.78;43.35;95127.78;5104794;28;20028;-69
2022/04/05 07:58:22;;;;;;;11.85;5.40;;;;;;;11.98;42.92;95128.78;5104366;28;20027;-68
2022/04/05 08:00:48;;;;;;;9.30;4.65;;;;;;;11.90;43.44;95126.22;5105246;28;20024;-67
2022/04/05 08:03:13;;;;;;;10.35;4.82;;;;;;;11.78;43.68;95122.41;5104187;28;20026;-67
2022/04/05 08:05:41;;;;;;;9.85;4.60;;;;;;;11.77;42.83;95120.75;5108879;28;20015;-67
2022/04/05 08:08:08;;;;;;;6.78;4.75;;;;;;;11.93;42.60;95125.03;5107793;28;20023;-68
2022/04/05 08:10:34;;;;;;;7.95;5.40;;;;;;;11.91;43.06;95117.16;5107120;28;20023;-69
2022/04/05 08:13:00;;;;;;;8.80;4.95;;;;;;;12.01;42.99;95113.31;5108122;28;20039;-69
2022/04/05 08:15:25;;;;;;;6.43;4.50;;;;;;;12.12;42.15;95118.19;5106592;28;20111;-69
2022/04/05 08:17:51;;;;;;;10.50;4.82;;;;;;;12.19;43.25;95116.38;5107367;28;20038;-67
2022/04/05 08:20:17;;;;;;;10.05;4.70;;;;;;;12.17;42.14;95115.72;5107335;28;20474;-68
2022/04/05 08:22:43;;;;;;;11.57;4.85;;;;;;;12.16;42.44;95114.06;5108740;28;20043;-67
2022/04/05 08:25:09;;;;;;;6.95;4.60;;;;;;;12.17;42.26;95113.03;5088969;28;20043;-67
2022/04/05 08:27:35;;;;;;;5.78;4.53;;;;;;;12.30;41.86;95112.31;5108174;28;20425;-70
2022/04/05 08:30:01;;;;;;;9.60;7.15;;;;;;;12.39;41.51;95115.69;5107701;28;20482;-68
2022/04/05 08:32:27;;;;;;;8.15;5.90;;;;;;;12.43;41.33;95105.38;5106542;28;20031;-71
2022/04/05 08:34:52;;;;;;;6.15;4.32;;;;;;;12.43;41.05;95106.19;5108476;28;20038;-68
2022/04/05 08:37:18;;;;;;;8.43;4.97;;;;;;;12.49;41.11;95097.34;5105904;28;20031;-68
2022/04/05 08:39:43;;;;;;;6.65;4.90;;;;;;;12.33;41.00;95098.47;5108281;28;20024;-68
2022/04/05 08:42:09;;;;;;;9.13;4.95;;;;;;;12.35;42.40;95091.03;5105747;28;20027;-68
2022/04/05 08:44:35;;;;;;;9.82;5.13;;;;;;;12.41;41.10;95094.81;5108037;28;20108;-68
2022/04/05 08:47:01;;;;;;;7.60;5.00;;;;;;;12.40;41.60;95092.31;5107490;28;20471;-71
2022/04/05 08:49:28;;;;;;;6.85;4.60;;;;;;;12.56;40.98;95085.78;5107536;28;20031;-69
2022/04/05 08:51:53;;;;;;;6.55;4.60;;;;;;;12.58;41.22;95083.72;5089284;28;20034;-67
2022/04/05 08:54:18;;;;;;;8.20;4.57;;;;;;;12.67;40.75;95079.84;5106942;28;20027;-68
2022/04/05 08:56:44;;;;;;;7.90;5.20;;;;;;;12.73;40.25;95079.03;5108001;28;20020;-71
2022/04/05 08:59:09;;;;;;;8.68;3.92;;;;;;;12.82;40.02;95071.66;5106944;28;20106;-69
2022/04/05 09:01:35;;;;;;;7.25;4.60;;;;;;;12.87;39.38;95073.72;5107412;28;20032;-68
2022/04/05 09:04:00;;;;;;;6.47;4.50;;;;;;;12.84;38.58;95066.91;5107177;28;20023;-67
2022/04/05 09:06:30;;;;;;;4.93;3.65;;;;;;;12.92;37.88;95068.59;5105944;28;20031;-70
2022/04/05 09:09:09;;;;;;;5.78;3.80;;;;;;;12.99;36.95;95063.22;5107192;28;20031;-71
2022/04/05 09:11:34;;;;;;;5.32;3.22;;;;;;;13.02;36.22;95056.59;5107001;28;20035;-69
2022/04/05 09:14:01;;;;;;;5.82;3.45;;;;;;;13.09;36.89;95052.91;5107395;27;20027;-71
2022/04/05 09:16:33;;;;;;;6.05;4.35;;;;;;;12.93;38.06;95054.09;5106547;28;20034;-69
2022/04/05 09:19:12;;;;;;;7.00;4.90;;;;;;;13.16;39.11;95049.41;5107636;28;20415;-69
2022/04/05 09:22:00;;;;;;;6.68;4.22;;;;;;;13.15;35.66;95050.44;5106389;28;20043;-68
2022/04/05 09:24:36;;;;;;;7.85;4.20;;;;;;;13.16;34.28;95041.31;5106457;27;20040;-68
2022/04/05 09:27:02;;;;;;;5.30;3.88;;;;;;;13.18;32.71;95050.03;5106181;28;20072;-68
2022/04/05 09:29:37;;;;;;;5.45;4.25;;;;;;;13.12;33.54;95040.06;5105083;28;20454;-68
2022/04/05 09:32:03;;;;;;;8.07;4.40;;;;;;;13.14;34.96;95036.13;5107326;28;20038;-69
2022/04/05 09:34:28;;;;;;;5.70;4.13;;;;;;;13.28;34.30;95036.19;5104914;28;20023;-68
2022/04/05 09:36:54;;;;;;;6.55;4.05;;;;;;;13.44;34.52;95029.59;5105654;28;20019;-69
2022/04/05 09:39:23;;;;;;;12.85;9.00;;;;;;;13.43;32.67;95026.03;5106678;28;20019;-68
2022/04/05 09:42:00;;;;;;;6.90;4.25;;;;;;;13.33;28.63;95025.63;5106553;28;20036;-67
2022/04/05 09:44:27;;;;;;;6.63;5.60;;;;;;;13.30;27.92;95016.06;5107156;28;20047;-67
2022/04/05 09:47:21;;;;;;;8.57;5.55;;;;;;;13.39;27.54;95015.88;5106073;28;20039;-72
2022/04/05 09:49:48;;;;;;;3.85;2.85;;;;;;;13.32;28.13;95018.56;5105920;28;20036;-68
2022/04/05 09:52:35;;;;;;;4.35;3.10;;;;;;;13.35;31.24;95015.47;5106407;28;20084;-68
2022/04/05 09:55:11;;;;;;;4.57;3.22;;;;;;;13.50;30.07;95004.50;5106312;28;20020;-67
2022/04/05 09:57:37;;;;;;;5.80;2.85;;;;;;;13.45;28.48;95012.38;5105522;28;20447;-68
2022/04/05 10:00:07;;;;;;;8.50;3.72;;;;;;;13.43;30.02;94999.09;5105633;28;20601;-68
2022/04/05 10:02:33;;;;;;;4.20;3.45;;;;;;;13.37;30.63;95013.41;5105127;28;20474;-68
2022/04/05 10:05:08;;;;;;;10.68;4.75;;;;;;;13.38;34.67;95003.47;5105755;28;20031;-68
2022/04/05 10:07:33;;;;;;;6.53;3.92;;;;;;;13.54;33.25;95004.97;5104594;28;20031;-67
2022/04/05 10:09:59;;;;;;;8.82;4.35;;;;;;;13.53;33.40;95004.13;5106472;28;20413;-68
2022/04/05 10:12:25;;;;;;;5.90;4.28;;;;;;;13.55;32.49;94996.69;5105805;28;20028;-68
2022/04/05 10:14:51;;;;;;;6.97;3.95;;;;;;;13.48;33.46;94991.25;5106229;28;20031;-66
2022/04/05 10:17:16;;;;;;;7.50;4.65;;;;;;;13.39;33.21;94991.66;5105117;28;20147;-68
2022/04/05 10:19:44;;;;;;;8.63;4.95;;;;;;;13.23;32.23;94982.94;5088081;28;20034;-69
2022/04/05 10:22:09;;;;;;;8.30;4.00;;;;;;;13.12;33.11;94980.84;5104389;28;20076;-68
2022/04/05 10:24:34;;;;;;;6.43;3.92;;;;;;;13.16;34.22;94976.69;5104311;28;20047;-68
2022/04/05 10:27:00;;;;;;;6.78;4.25;;;;;;;13.39;35.40;94981.72;5087099;28;20058;-68
2022/04/05 10:29:26;;;;;;;6.20;3.90;;;;;;;13.40;33.68;94975.28;5105742;28;20019;-67
2022/04/05 10:31:57;;;;;;;7.63;4.00;;;;;;;13.44;33.60;94968.47;5087558;28;20023;-66
2022/04/05 10:34:23;;;;;;;6.82;3.75;;;;;;;13.45;33.29;94963.88;5087477;28;20584;-68
2022/04/05 10:37:19;;;;;;;7.90;4.65;;;;;;;13.56;36.79;94962.47;5106075;28;20027;-68
2022/04/05 10:39:56;;;;;;;5.13;4.30;;;;;;;13.64;34.01;94958.75;5103430;28;20093;-68
2022/04/05 10:42:24;;;;;;;5.60;3.88;;;;;;;13.75;33.48;94950.00;5105644;28;20032;-69
2022/04/05 10:45:05;;;;;;;5.30;4.15;;;;;;;13.67;32.68;94951.06;5106004;28;20020;-68
2022/04/05 10:47:31;;;;;;;7.60;4.80;;;;;;;13.64;33.47;94946.09;5104857;28;20397;-67
2022/04/05 10:49:56;;;;;;;6.65;4.15;;;;;;;13.67;32.56;94944.88;5105725;28;20037;-69
2022/04/05 10:52:31;;;;;;;9.25;4.82;;;;;;;13.62;32.81;94948.19;5105062;28;20031;-69
2022/04/05 10:55:05;;;;;;;8.98;3.97;;;;;;;13.65;34.62;94936.16;5088009;28;20024;-69
2022/04/05 10:57:32;;;;;;;8.98;4.50;;;;;;;13.81;34.07;94934.88;5106016;28;20497;-67
2022/04/05 11:00:11;;;;;;;5.60;4.05;;;;;;;13.84;33.40;94934.47;5104745;28;20104;-68
2022/04/05 11:02:38;;;;;;;7.25;3.35;;;;;;;13.92;33.37;94922.63;5105729;28;20430;-67
2022/04/05 11:05:13;;;;;;;8.27;3.40;;;;;;;13.99;33.88;94926.16;5104985;28;20571;-68
2022/04/05 11:07:54;;;;;;;18.52;5.88;;;;;;;14.05;34.15;94914.53;5105496;28;20566;-69
2022/04/05 11:10:39;;;;;;;7.70;3.92;;;;;;;14.25;32.90;94910.09;5105604;28;20506;-69
2022/04/05 11:13:06;;;;;;;6.90;3.30;;;;;;;14.32;33.71;94909.03;5089921;28;20070;-67
2022/04/05 11:16:01;;;;;;;4.82;3.22;;;;;;;14.48;34.03;94898.78;5105815;28;20420;-68
2022/04/05 11:18:29;;;;;;;6.10;3.53;;;;;;;14.65;33.53;94899.13;5087693;28;20039;-68
2022/04/05 11:20:56;;;;;;;4.57;3.35;;;;;;;14.72;33.60;94896.38;5104979;28;20024;-68
2022/04/05 11:23:42;;;;;;;6.47;3.10;;;;;;;14.77;31.50;94887.63;5104163;28;20024;-67
2022/04/05 11:26:35;;;;;;;7.65;2.92;;;;;;;14.73;32.55;94881.03;5104351;28;20499;-70
2022/04/05 11:29:03;;;;;;;4.18;2.97;;;;;;;14.83;33.48;94878.72;5105104;28;20530;-68
2022/04/05 11:31:32;;;;;;;7.10;3.42;;;;;;;15.00;33.19;94879.00;5104761;28;20747;-68